Time;durP1;ratioP1;P1;durP2;ratioP2;P2;SDS_P1;SDS_P2;PMS_P1;PMS_P2;Temp;Humidity;BMP_temperature;BMP_pressure;BME280_temperature;BME280_humidity;BME280_pressure;Samples;Min_cycle;Max_cycle;Signal;HPM_P1;HPM_P2
2020/12/15 00:00:25;;;;;;;13.82;9.75;;;9.20;94.10;;;;;;5030861;28;20406;-53
2020/12/15 00:03:11;;;;;;;14.40;9.20;;;9.20;94.10;;;;;;5017232;28;20049;-53
2020/12/15 00:05:57;;;;;;;17.85;9.73;;;9.20;94.00;;;;;;5006289;28;20045;-54
2020/12/15 00:08:23;;;;;;;14.82;9.75;;;9.10;94.10;;;;;;5009203;28;20025;-55
2020/12/15 00:10:52;;;;;;;15.50;9.60;;;9.20;94.10;;;;;;5019254;28;20372;-53
2020/12/15 00:13:18;;;;;;;15.40;9.80;;;9.10;94.20;;;;;;4999584;28;20125;-54
2020/12/15 00:15:44;;;;;;;17.05;10.30;;;9.20;94.10;;;;;;5002884;28;20489;-55
2020/12/15 00:18:10;;;;;;;16.27;9.95;;;9.10;94.30;;;;;;5011470;28;20048;-55
2020/12/15 00:20:40;;;;;;;15.18;9.63;;;9.10;94.30;;;;;;5027804;28;20505;-54
2020/12/15 00:23:26;;;;;;;15.65;10.25;;;9.10;94.30;;;;;;5001253;28;20073;-54
2020/12/15 00:25:51;;;;;;;14.45;9.75;;;9.20;94.30;;;;;;5011796;28;20062;-54
2020/12/15 00:28:17;;;;;;;13.73;8.60;;;9.20;94.10;;;;;;5011439;28;20574;-54
2020/12/15 00:30:43;;;;;;;17.20;9.60;;;9.20;94.20;;;;;;5026367;28;20103;-55
2020/12/15 00:33:08;;;;;;;14.57;8.88;;;9.20;94.00;;;;;;5022059;28;20038;-55
2020/12/15 00:35:34;;;;;;;18.20;10.00;;;9.20;93.90;;;;;;5020236;28;20084;-54
2020/12/15 00:38:00;;;;;;;17.15;9.10;;;9.20;93.80;;;;;;5007621;28;20053;-55
2020/12/15 00:40:26;;;;;;;13.68;8.85;;;9.20;93.70;;;;;;5026749;28;20049;-55
2020/12/15 00:43:11;;;;;;;16.75;9.50;;;9.20;93.80;;;;;;5011514;28;20508;-55
2020/12/15 00:45:37;;;;;;;13.77;8.02;;;9.20;93.60;;;;;;5012148;28;20042;-54
2020/12/15 00:48:06;;;;;;;14.63;8.82;;;9.10;93.80;;;;;;5024849;28;20486;-52
2020/12/15 00:50:32;;;;;;;12.27;8.23;;;9.10;93.60;;;;;;5029709;28;20299;-55
2020/12/15 00:52:58;;;;;;;15.10;8.38;;;9.10;93.70;;;;;;4998850;28;20026;-55
2020/12/15 00:55:44;;;;;;;15.02;8.40;;;9.10;93.60;;;;;;5015826;28;20060;-53
2020/12/15 00:58:09;;;;;;;15.55;8.50;;;9.10;93.70;;;;;;5029010;28;20042;-54
2020/12/15 01:00:37;;;;;;;16.77;8.73;;;9.00;93.70;;;;;;5031691;28;20037;-55
2020/12/15 01:03:05;;;;;;;17.90;8.30;;;9.10;93.50;;;;;;5010346;28;20041;-55
2020/12/15 01:05:31;;;;;;;14.82;7.95;;;9.00;93.50;;;;;;5030996;28;20038;-54
2020/12/15 01:07:56;;;;;;;15.68;9.02;;;9.00;93.60;;;;;;5030698;28;20041;-56
2020/12/15 01:10:22;;;;;;;15.43;8.38;;;8.90;93.70;;;;;;5022886;28;20091;-55
2020/12/15 01:12:48;;;;;;;12.68;8.20;;;9.00;93.60;;;;;;5029917;28;20071;-55
2020/12/15 01:15:14;;;;;;;17.48;7.80;;;9.00;93.40;;;;;;5024209;28;20403;-56
2020/12/15 01:17:40;;;;;;;15.02;7.88;;;9.00;93.30;;;;;;5030569;28;20060;-56
2020/12/15 01:20:26;;;;;;;14.45;7.90;;;9.00;93.40;;;;;;5006998;28;20092;-52
2020/12/15 01:22:51;;;;;;;17.48;8.57;;;9.00;93.40;;;;;;5018982;28;20065;-55
2020/12/15 01:25:17;;;;;;;14.32;7.68;;;8.90;93.50;;;;;;5014795;28;20061;-55
2020/12/15 01:27:42;;;;;;;13.13;7.97;;;8.90;93.40;;;;;;5015496;28;20569;-51
2020/12/15 01:30:08;;;;;;;12.55;7.68;;;8.90;93.30;;;;;;5022738;28;20046;-51
2020/12/15 01:32:34;;;;;;;12.85;7.50;;;9.00;93.30;;;;;;5020195;28;20401;-51
2020/12/15 01:35:21;;;;;;;16.33;7.47;;;9.00;93.50;;;;;;5007265;28;20135;-53
2020/12/15 01:37:47;;;;;;;14.38;7.68;;;8.90;93.30;;;;;;5029323;28;20065;-50
2020/12/15 01:40:13;;;;;;;13.88;7.82;;;8.90;93.30;;;;;;5022526;28;20048;-51
2020/12/15 01:42:59;;;;;;;13.48;7.55;;;8.90;93.40;;;;;;5011679;28;20089;-51
2020/12/15 01:45:25;;;;;;;11.23;7.00;;;8.80;93.50;;;;;;5027323;28;20069;-54
2020/12/15 01:47:51;;;;;;;13.38;7.57;;;8.80;93.40;;;;;;5025154;28;20413;-51
2020/12/15 01:50:18;;;;;;;15.05;6.90;;;8.70;93.40;;;;;;5016228;28;20137;-51
2020/12/15 01:53:09;;;;;;;11.23;7.32;;;8.80;93.30;;;;;;5008459;28;20064;-52
2020/12/15 01:55:36;;;;;;;13.23;7.28;;;8.80;93.10;;;;;;5031628;28;20414;-55
2020/12/15 01:58:03;;;;;;;12.50;7.03;;;8.80;93.30;;;;;;5014659;28;20038;-50
2020/12/15 02:00:29;;;;;;;14.80;7.40;;;8.80;93.30;;;;;;5021308;28;20121;-53
2020/12/15 02:02:55;;;;;;;13.07;7.75;;;8.80;93.30;;;;;;5015331;28;20041;-50
2020/12/15 02:05:41;;;;;;;13.52;7.90;;;8.80;93.20;;;;;;5001498;28;20077;-52
2020/12/15 02:08:07;;;;;;;13.93;6.85;;;8.70;93.30;;;;;;5022023;28;20041;-50
2020/12/15 02:10:33;;;;;;;12.57;7.40;;;8.70;93.20;;;;;;5021046;28;20041;-51
2020/12/15 02:13:22;;;;;;;16.38;8.05;;;8.70;93.30;;;;;;5001582;28;20061;-50
2020/12/15 02:15:49;;;;;;;10.40;7.22;;;8.70;93.30;;;;;;5015247;28;20767;-52
2020/12/15 02:18:34;;;;;;;14.07;7.75;;;8.70;93.40;;;;;;5017725;28;20048;-52
2020/12/15 02:21:09;;;;;;;14.02;7.35;;;8.60;93.40;;;;;;5028820;28;20049;-51
2020/12/15 02:23:35;;;;;;;12.88;7.85;;;8.70;93.40;;;;;;5013913;28;20041;-53
2020/12/15 02:26:21;;;;;;;13.68;7.13;;;8.70;93.40;;;;;;5019906;28;20205;-51
2020/12/15 02:28:47;;;;;;;13.88;7.28;;;8.70;93.50;;;;;;5011636;28;20096;-50
2020/12/15 02:31:13;;;;;;;15.45;7.90;;;8.70;93.40;;;;;;5013957;28;20046;-50
2020/12/15 02:33:59;;;;;;;10.30;6.95;;;8.60;93.50;;;;;;5004774;28;20421;-51
2020/12/15 02:36:27;;;;;;;13.93;7.88;;;8.70;93.20;;;;;;5015085;28;20041;-50
2020/12/15 02:38:53;;;;;;;12.65;7.47;;;8.70;93.20;;;;;;5012887;28;20599;-50
2020/12/15 02:41:19;;;;;;;13.05;7.55;;;8.70;93.20;;;;;;5025450;28;20036;-50
2020/12/15 02:44:06;;;;;;;14.85;8.30;;;8.70;93.10;;;;;;5009241;28;20084;-50
2020/12/15 02:46:32;;;;;;;12.82;7.88;;;8.70;93.20;;;;;;5029759;28;20044;-50
2020/12/15 02:48:59;;;;;;;14.35;7.43;;;8.70;93.10;;;;;;5018865;28;20037;-50
2020/12/15 02:51:25;;;;;;;13.93;8.30;;;8.80;93.00;;;;;;5016955;28;20071;-49
2020/12/15 02:53:52;;;;;;;12.48;8.40;;;8.80;92.90;;;;;;5029669;28;20344;-53
2020/12/15 02:56:37;;;;;;;14.77;8.23;;;8.70;93.10;;;;;;5004148;28;20037;-54
2020/12/15 02:59:23;;;;;;;14.05;8.35;;;8.60;93.30;;;;;;5019277;28;20124;-51
2020/12/15 03:01:51;;;;;;;14.52;8.73;;;8.60;93.50;;;;;;5034376;28;20124;-51
2020/12/15 03:04:17;;;;;;;12.40;8.25;;;8.60;93.50;;;;;;5031249;28;20096;-55
2020/12/15 03:06:43;;;;;;;12.13;8.25;;;8.50;93.50;;;;;;5027113;28;20049;-52
2020/12/15 03:09:09;;;;;;;14.32;8.88;;;8.60;93.50;;;;;;5035264;28;20046;-55
2020/12/15 03:11:36;;;;;;;14.20;8.65;;;8.60;93.70;;;;;;5029395;28;20417;-55
2020/12/15 03:14:03;;;;;;;19.27;8.93;;;8.50;93.70;;;;;;5020099;28;20407;-52
2020/12/15 03:16:49;;;;;;;17.33;9.38;;;8.50;93.80;;;;;;5008289;28;20037;-54
2020/12/15 03:19:37;;;;;;;13.30;9.10;;;8.50;93.80;;;;;;4992833;28;20136;-54
2020/12/15 03:22:03;;;;;;;13.93;9.75;;;8.60;93.70;;;;;;5002820;28;20510;-54
2020/12/15 03:24:49;;;;;;;14.70;9.57;;;8.50;93.80;;;;;;4997660;28;20049;-55
2020/12/15 03:27:15;;;;;;;12.77;9.30;;;8.60;93.80;;;;;;5012880;28;20060;-52
2020/12/15 03:29:41;;;;;;;14.27;9.40;;;8.50;93.90;;;;;;5020107;28;20061;-55
2020/12/15 03:32:07;;;;;;;13.55;9.73;;;8.50;94.00;;;;;;5011799;28;20029;-54
2020/12/15 03:34:32;;;;;;;14.38;9.85;;;8.50;94.00;;;;;;5013021;28;20542;-54
2020/12/15 03:36:58;;;;;;;14.45;9.73;;;8.50;93.90;;;;;;5018032;28;20045;-54
2020/12/15 03:39:24;;;;;;;16.58;10.18;;;8.50;93.90;;;;;;5013593;28;20099;-55
2020/12/15 03:42:09;;;;;;;14.80;9.88;;;8.60;94.00;;;;;;5011614;28;20054;-54
2020/12/15 03:44:37;;;;;;;14.15;10.70;;;8.60;93.90;;;;;;5013086;28;20046;-55
2020/12/15 03:47:02;;;;;;;16.85;10.30;;;8.60;93.90;;;;;;5013739;28;20255;-56
2020/12/15 03:49:29;;;;;;;18.27;10.40;;;8.50;93.90;;;;;;5014061;28;20112;-56
2020/12/15 03:52:15;;;;;;;15.35;10.93;;;8.60;93.80;;;;;;5001639;28;20052;-56
2020/12/15 03:55:02;;;;;;;17.92;11.02;;;8.60;93.80;;;;;;5011561;28;20049;-53
2020/12/15 03:57:27;;;;;;;16.10;10.95;;;8.50;93.90;;;;;;5017731;28;20037;-56
2020/12/15 03:59:53;;;;;;;15.23;10.93;;;8.50;93.90;;;;;;5016528;28;20138;-55
2020/12/15 04:02:19;;;;;;;15.20;11.25;;;8.60;94.10;;;;;;5017692;28;20050;-56
2020/12/15 04:04:45;;;;;;;17.67;11.88;;;8.60;93.90;;;;;;5021142;28;20581;-56
2020/12/15 04:07:10;;;;;;;16.00;11.20;;;8.60;94.00;;;;;;5012395;28;20116;-56
2020/12/15 04:09:37;;;;;;;16.48;11.35;;;8.50;94.00;;;;;;5001606;28;20387;-57
2020/12/15 04:12:03;;;;;;;15.25;10.70;;;8.50;94.10;;;;;;4999632;28;20049;-53
2020/12/15 04:14:48;;;;;;;16.05;11.20;;;8.60;94.00;;;;;;5015016;28;20132;-56
2020/12/15 04:17:36;;;;;;;16.83;11.82;;;8.60;93.90;;;;;;5001012;28;20092;-57
2020/12/15 04:20:06;;;;;;;18.38;12.82;;;8.60;93.80;;;;;;5019967;28;20041;-56
2020/12/15 04:22:32;;;;;;;16.92;11.95;;;8.60;93.80;;;;;;5028274;28;20046;-56
2020/12/15 04:25:02;;;;;;;16.25;11.90;;;8.60;93.90;;;;;;5032955;28;20056;-56
2020/12/15 04:27:28;;;;;;;17.88;12.52;;;8.60;93.90;;;;;;5029687;28;20068;-56
2020/12/15 04:29:55;;;;;;;18.08;12.82;;;8.60;94.00;;;;;;5013028;28;20493;-56
2020/12/15 04:32:22;;;;;;;18.00;12.98;;;8.60;94.00;;;;;;5020087;28;20105;-56
2020/12/15 04:34:47;;;;;;;17.27;13.10;;;8.60;94.20;;;;;;5030349;28;20042;-57
2020/12/15 04:37:13;;;;;;;16.90;12.27;;;8.60;94.10;;;;;;5015310;28;20041;-55
2020/12/15 04:39:39;;;;;;;17.98;12.63;;;8.60;94.10;;;;;;5024269;28;20425;-56
2020/12/15 04:42:06;;;;;;;15.75;12.50;;;8.60;94.00;;;;;;5019830;28;20045;-57
2020/12/15 04:44:36;;;;;;;17.05;12.43;;;8.60;94.10;;;;;;5020977;28;20038;-54
2020/12/15 04:47:34;;;;;;;18.48;12.75;;;8.60;94.10;;;;;;4999465;28;20085;-54
2020/12/15 04:50:07;;;;;;;16.02;12.50;;;8.60;94.20;;;;;;5011945;28;20104;-55
2020/12/15 04:52:51;;;;;;;;;;;8.60;94.10;;;;;;5020430;28;20041;-54
2020/12/15 04:55:39;;;;;;;16.23;12.93;;;8.60;94.20;;;;;;5008036;28;19963;-56
2020/12/15 04:58:25;;;;;;;19.48;13.90;;;8.60;94.00;;;;;;5016734;28;20049;-56
2020/12/15 05:00:51;;;;;;;17.40;13.60;;;8.60;94.10;;;;;;5009845;28;20034;-53
2020/12/15 05:03:21;;;;;;;18.35;14.35;;;8.60;94.10;;;;;;5015287;28;20041;-54
2020/12/15 05:06:15;;;;;;;19.88;14.40;;;8.60;94.10;;;;;;4998275;28;20411;-55
2020/12/15 05:08:47;;;;;;;18.38;15.43;;;8.60;94.10;;;;;;4992103;28;20125;-53
2020/12/15 05:11:13;;;;;;;19.90;14.52;;;8.60;94.20;;;;;;5019951;28;20048;-56
2020/12/15 05:13:58;;;;;;;19.67;14.75;;;8.60;94.30;;;;;;5013438;28;20049;-56
2020/12/15 05:16:36;;;;;;;20.15;15.02;;;8.70;94.30;;;;;;5019274;28;20561;-56
2020/12/15 05:19:05;;;;;;;20.75;15.13;;;8.60;94.40;;;;;;5014223;28;20493;-56
2020/12/15 05:21:54;;;;;;;22.80;16.25;;;8.60;94.50;;;;;;4999990;28;20049;-52
2020/12/15 05:24:46;;;;;;;23.40;15.98;;;8.60;94.40;;;;;;5008722;28;20185;-55
2020/12/15 05:27:15;;;;;;;22.25;16.83;;;8.60;94.50;;;;;;5014973;28;20048;-52
2020/12/15 05:29:41;;;;;;;18.67;14.88;;;8.60;94.60;;;;;;5021346;28;20053;-56
2020/12/15 05:32:27;;;;;;;19.52;15.20;;;8.70;94.40;;;;;;5015229;28;20041;-57
2020/12/15 05:35:13;;;;;;;21.45;15.98;;;8.70;94.30;;;;;;5014679;28;20394;-53
2020/12/15 05:38:03;;;;;;;24.92;18.40;;;8.60;94.50;;;;;;5001291;28;20132;-56
2020/12/15 05:40:28;;;;;;;21.70;16.70;;;8.70;94.50;;;;;;5012109;28;20042;-54
2020/12/15 05:42:59;;;;;;;21.40;16.42;;;8.70;94.50;;;;;;5012419;28;20045;-57
2020/12/15 05:45:26;;;;;;;21.05;16.05;;;8.70;94.50;;;;;;5021759;28;20061;-56
2020/12/15 05:48:07;;;;;;;21.75;16.33;;;8.60;94.50;;;;;;5021736;28;20046;-51
2020/12/15 05:50:33;;;;;;;21.77;16.38;;;8.60;94.60;;;;;;5021905;28;20096;-52
2020/12/15 05:53:08;;;;;;;22.90;16.95;;;8.70;94.50;;;;;;5002687;28;20561;-50
2020/12/15 05:55:33;;;;;;;22.70;16.30;;;8.60;94.50;;;;;;5015014;28;20045;-50
2020/12/15 05:58:01;;;;;;;20.58;15.90;;;8.70;94.70;;;;;;5026420;28;20037;-50
2020/12/15 06:00:33;;;;;;;20.00;16.38;;;8.70;94.50;;;;;;4996759;28;20038;-50
2020/12/15 06:03:01;;;;;;;21.08;15.48;;;8.70;94.40;;;;;;5016442;28;20389;-50
2020/12/15 06:05:31;;;;;;;20.23;15.45;;;8.70;94.50;;;;;;5002738;28;20426;-50
2020/12/15 06:08:21;;;;;;;18.73;15.45;;;8.70;94.50;;;;;;5009934;28;20058;-51
2020/12/15 06:10:52;;;;;;;22.42;17.02;;;8.70;94.30;;;;;;5023177;28;20057;-50
2020/12/15 06:13:37;;;;;;;19.95;15.73;;;8.70;94.40;;;;;;4999302;28;20124;-50
2020/12/15 06:16:03;;;;;;;22.40;16.77;;;8.70;94.50;;;;;;5018507;28;20113;-51
2020/12/15 06:18:29;;;;;;;24.58;16.73;;;8.70;94.40;;;;;;5027762;28;20127;-56
2020/12/15 06:20:55;;;;;;;22.33;16.02;;;8.70;94.50;;;;;;5031665;28;20041;-57
2020/12/15 06:23:21;;;;;;;21.73;15.80;;;8.80;94.30;;;;;;5023472;28;20117;-51
2020/12/15 06:25:48;;;;;;;20.73;16.05;;;8.80;94.20;;;;;;5008846;28;20063;-54
2020/12/15 06:28:16;;;;;;;20.08;15.48;;;8.80;94.20;;;;;;5021483;28;20046;-54
2020/12/15 06:30:45;;;;;;;21.95;15.32;;;8.70;94.30;;;;;;5011988;28;20038;-52
2020/12/15 06:33:13;;;;;;;21.08;15.23;;;8.70;94.40;;;;;;5016028;28;20089;-55
2020/12/15 06:35:39;;;;;;;22.95;14.93;;;8.80;94.40;;;;;;5018469;28;20045;-55
2020/12/15 06:38:15;;;;;;;20.15;14.38;;;8.80;94.30;;;;;;5019662;28;20064;-54
2020/12/15 06:41:01;;;;;;;20.92;14.65;;;8.70;94.30;;;;;;4998205;28;20082;-54
2020/12/15 06:43:28;;;;;;;19.48;13.88;;;8.80;94.20;;;;;;5018225;28;20065;-53
2020/12/15 06:46:08;;;;;;;19.83;14.45;;;8.80;94.20;;;;;;5016494;28;20038;-54
2020/12/15 06:48:38;;;;;;;19.23;14.50;;;8.70;94.20;;;;;;5019855;28;20454;-55
2020/12/15 06:51:05;;;;;;;17.98;13.85;;;8.70;94.30;;;;;;5019389;28;20099;-54
2020/12/15 06:54:03;;;;;;;19.85;13.52;;;8.80;94.30;;;;;;5003162;28;20516;-54
2020/12/15 06:56:29;;;;;;;19.00;13.57;;;8.80;94.20;;;;;;5011619;28;20038;-53
2020/12/15 06:59:17;;;;;;;18.52;12.45;;;8.70;94.20;;;;;;5004020;28;20060;-51
2020/12/15 07:01:44;;;;;;;19.60;13.18;;;8.70;94.30;;;;;;5021137;28;20088;-54
2020/12/15 07:04:19;;;;;;;17.67;13.40;;;8.70;94.30;;;;;;5014540;28;20091;-52
2020/12/15 07:06:57;;;;;;;17.17;12.38;;;8.70;94.20;;;;;;5030866;28;20069;-55
2020/12/15 07:09:24;;;;;;;19.08;13.10;;;8.70;94.20;;;;;;5005729;28;20422;-50
2020/12/15 07:11:50;;;;;;;18.02;13.23;;;8.70;94.20;;;;;;5018437;28;20037;-53
2020/12/15 07:14:36;;;;;;;17.50;12.25;;;8.70;94.30;;;;;;5003448;28;20049;-53
2020/12/15 07:17:02;;;;;;;16.27;12.32;;;8.70;94.30;;;;;;5029911;28;20048;-55
2020/12/15 07:19:28;;;;;;;18.05;12.23;;;8.70;94.20;;;;;;5028675;28;20034;-54
2020/12/15 07:22:14;;;;;;;19.35;12.82;;;8.80;94.10;;;;;;4997276;28;20074;-55
2020/12/15 07:24:40;;;;;;;17.20;11.70;;;8.80;94.00;;;;;;5015079;28;20041;-54
2020/12/15 07:27:27;;;;;;;17.35;12.65;;;8.80;94.00;;;;;;5001842;28;20394;-55
2020/12/15 07:29:54;;;;;;;16.80;11.98;;;8.80;94.00;;;;;;5015456;28;20034;-52
2020/12/15 07:32:40;;;;;;;19.73;12.55;;;8.80;94.00;;;;;;5001229;28;20049;-53
2020/12/15 07:35:34;;;;;;;17.38;12.25;;;8.80;94.00;;;;;;5013513;28;20042;-53
2020/12/15 07:38:02;;;;;;;17.52;11.82;;;8.80;94.00;;;;;;5012784;28;20045;-54
2020/12/15 07:40:29;;;;;;;19.02;12.18;;;8.80;94.00;;;;;;5014504;28;20043;-55
2020/12/15 07:43:16;;;;;;;20.85;12.18;;;8.70;94.00;;;;;;4997184;28;20398;-51
2020/12/15 07:45:42;;;;;;;17.13;11.75;;;8.70;94.10;;;;;;5010172;28;20065;-53
2020/12/15 07:48:29;;;;;;;16.85;11.60;;;8.80;94.20;;;;;;5003639;28;20468;-55
2020/12/15 07:51:04;;;;;;;16.83;11.27;;;8.80;94.10;;;;;;5018285;28;20046;-52
2020/12/15 07:53:57;;;;;;;19.25;12.23;;;8.80;94.00;;;;;;5010891;28;20037;-55
2020/12/15 07:56:47;;;;;;;16.25;10.98;;;8.90;93.80;;;;;;4999535;28;20052;-56
2020/12/15 07:59:13;;;;;;;15.90;11.38;;;8.80;93.90;;;;;;5024895;28;20051;-50
2020/12/15 08:01:39;;;;;;;17.38;11.70;;;8.90;93.80;;;;;;5028669;28;20049;-57
2020/12/15 08:04:08;;;;;;;15.07;11.55;;;8.90;93.90;;;;;;5014918;28;20037;-56
2020/12/15 08:06:35;;;;;;;16.13;11.02;;;8.80;93.90;;;;;;5028940;28;20087;-57
2020/12/15 08:09:05;;;;;;;14.32;10.60;;;8.90;93.90;;;;;;5017144;28;20045;-54
2020/12/15 08:11:54;;;;;;;17.20;11.52;;;8.80;93.90;;;;;;4989477;28;20485;-56
2020/12/15 08:14:20;;;;;;;14.95;12.27;;;8.80;93.80;;;;;;5027885;28;20103;-58
2020/12/15 08:16:46;;;;;;;16.25;10.75;;;8.80;93.90;;;;;;5021963;28;20042;-49
2020/12/15 08:19:13;;;;;;;16.52;11.50;;;8.80;93.90;;;;;;4993048;28;20053;-49
2020/12/15 08:21:46;;;;;;;18.08;10.63;;;8.80;93.80;;;;;;5031147;28;20029;-51
2020/12/15 08:24:14;;;;;;;18.48;11.68;;;8.90;93.80;;;;;;5016980;28;20045;-51
2020/12/15 08:27:00;;;;;;;19.85;11.93;;;8.90;93.80;;;;;;5003059;28;20104;-52
2020/12/15 08:29:29;;;;;;;14.98;11.20;;;8.90;93.70;;;;;;5008765;28;20041;-51
2020/12/15 08:32:29;;;;;;;18.10;11.65;;;8.90;93.80;;;;;;5016451;28;20111;-52
2020/12/15 08:35:23;;;;;;;17.95;11.82;;;8.90;93.70;;;;;;5005000;28;20072;-51
2020/12/15 08:38:11;;;;;;;17.70;11.77;;;8.90;93.70;;;;;;5016678;28;20418;-53
2020/12/15 08:40:37;;;;;;;17.55;11.25;;;8.80;93.90;;;;;;5013759;28;20060;-51
2020/12/15 08:43:03;;;;;;;19.38;11.13;;;8.90;94.10;;;;;;5003837;28;20108;-53
2020/12/15 08:45:50;;;;;;;19.25;11.75;;;8.80;93.90;;;;;;5016482;28;20448;-52
2020/12/15 08:48:36;;;;;;;17.38;11.68;;;8.80;94.00;;;;;;5001814;28;20064;-53
2020/12/15 08:51:23;;;;;;;19.58;12.05;;;8.80;94.00;;;;;;5009407;28;20088;-52
2020/12/15 08:53:49;;;;;;;15.73;11.75;;;8.90;93.90;;;;;;5020671;28;20069;-52
2020/12/15 08:56:16;;;;;;;16.13;11.20;;;8.90;94.00;;;;;;5010403;28;20066;-52
2020/12/15 08:58:42;;;;;;;19.10;12.07;;;8.90;93.90;;;;;;5030352;28;20049;-51
2020/12/15 09:01:08;;;;;;;14.90;11.63;;;8.90;93.80;;;;;;5019826;28;20061;-55
2020/12/15 09:03:54;;;;;;;17.98;11.30;;;9.00;93.70;;;;;;5000886;28;20041;-52
2020/12/15 09:06:36;;;;;;;17.35;12.00;;;9.00;93.80;;;;;;5018529;28;20064;-52
2020/12/15 09:09:03;;;;;;;15.73;11.18;;;9.00;93.80;;;;;;5010764;28;20050;-51
2020/12/15 09:11:28;;;;;;;17.45;11.98;;;8.90;93.90;;;;;;5010158;28;20056;-52
2020/12/15 09:14:18;;;;;;;16.13;12.25;;;9.00;93.80;;;;;;5009479;28;20070;-52
2020/12/15 09:16:45;;;;;;;24.40;12.60;;;9.00;93.80;;;;;;4994024;28;20042;-52
2020/12/15 09:19:21;;;;;;;17.98;12.13;;;8.90;93.90;;;;;;5013501;28;20045;-53
2020/12/15 09:21:58;;;;;;;17.10;11.80;;;8.90;94.00;;;;;;5028492;28;20091;-52
2020/12/15 09:24:44;;;;;;;17.20;12.18;;;8.90;94.00;;;;;;5014330;28;20042;-51
2020/12/15 09:27:20;;;;;;;18.73;12.25;;;8.90;93.90;;;;;;5014369;28;20104;-54
2020/12/15 09:29:46;;;;;;;16.55;11.45;;;9.00;93.90;;;;;;5023315;28;20038;-51
2020/12/15 09:32:11;;;;;;;16.40;12.13;;;9.00;93.90;;;;;;5020651;28;20391;-53
2020/12/15 09:34:57;;;;;;;15.38;11.68;;;9.00;93.90;;;;;;4996000;28;20113;-52
2020/12/15 09:37:22;;;;;;;15.85;11.65;;;9.00;93.90;;;;;;5034465;28;20468;-56
2020/12/15 09:39:48;;;;;;;15.90;12.32;;;9.00;94.00;;;;;;5027349;28;20040;-56
2020/12/15 09:42:14;;;;;;;18.63;12.18;;;9.00;94.00;;;;;;5018359;28;20052;-57
2020/12/15 09:44:39;;;;;;;16.77;11.93;;;9.10;93.80;;;;;;5034261;28;20052;-56
2020/12/15 09:47:25;;;;;;;22.33;11.93;;;9.10;93.80;;;;;;5004916;28;20048;-51
2020/12/15 09:49:50;;;;;;;16.60;13.15;;;9.10;93.90;;;;;;5023602;28;20053;-51
2020/12/15 09:52:17;;;;;;;18.13;12.65;;;9.10;93.90;;;;;;5029581;28;20050;-50
2020/12/15 09:55:02;;;;;;;17.88;13.27;;;9.10;93.90;;;;;;5024475;28;20041;-50
2020/12/15 09:57:28;;;;;;;19.02;13.40;;;9.00;94.00;;;;;;5033358;28;20494;-50
2020/12/15 10:00:13;;;;;;;21.20;12.77;;;9.10;94.00;;;;;;5007504;28;20038;-50
2020/12/15 10:02:39;;;;;;;18.27;12.45;;;9.20;93.90;;;;;;5022062;28;20264;-50
2020/12/15 10:05:04;;;;;;;19.45;13.05;;;9.20;93.90;;;;;;5027038;28;20076;-50
2020/12/15 10:07:50;;;;;;;18.25;13.23;;;9.10;93.90;;;;;;5018513;28;20045;-53
2020/12/15 10:10:16;;;;;;;20.15;12.90;;;9.10;93.90;;;;;;5033786;28;20156;-50
2020/12/15 10:12:43;;;;;;;20.17;13.38;;;9.10;94.00;;;;;;5018560;28;20053;-52
2020/12/15 10:15:10;;;;;;;18.40;13.10;;;9.10;93.90;;;;;;5031674;28;20123;-53
2020/12/15 10:17:36;;;;;;;22.23;13.48;;;9.20;93.90;;;;;;5028124;28;20463;-50
2020/12/15 10:20:03;;;;;;;18.05;13.25;;;9.20;94.00;;;;;;5017340;28;20049;-51
2020/12/15 10:22:29;;;;;;;17.40;13.43;;;9.10;93.90;;;;;;5028377;28;20037;-51
2020/12/15 10:25:15;;;;;;;21.98;14.75;;;9.20;94.10;;;;;;5006542;28;20045;-50
2020/12/15 10:28:00;;;;;;;24.10;14.63;;;9.10;94.10;;;;;;5012378;28;20049;-51
2020/12/15 10:30:26;;;;;;;23.33;14.23;;;9.10;94.20;;;;;;5014771;28;20032;-52
2020/12/15 10:32:52;;;;;;;21.92;14.68;;;9.20;94.10;;;;;;5022543;28;20038;-54
2020/12/15 10:35:17;;;;;;;24.10;15.30;;;9.10;94.00;;;;;;5014848;28;20053;-51
2020/12/15 10:37:46;;;;;;;22.45;15.32;;;9.10;94.10;;;;;;5014288;28;20046;-55
2020/12/15 10:40:12;;;;;;;19.88;14.88;;;9.10;94.20;;;;;;5020669;28;20041;-56
2020/12/15 10:42:58;;;;;;;25.08;15.57;;;9.10;94.20;;;;;;4984973;28;20399;-57
2020/12/15 10:45:24;;;;;;;21.85;15.80;;;9.10;94.40;;;;;;5023864;28;20040;-51
2020/12/15 10:48:09;;;;;;;24.75;16.40;;;9.10;94.40;;;;;;5005881;28;20053;-53
2020/12/15 10:50:55;;;;;;;23.98;16.10;;;9.10;94.40;;;;;;4998941;28;20513;-55
2020/12/15 10:53:22;;;;;;;22.38;16.40;;;9.10;94.30;;;;;;5025576;28;20045;-52
2020/12/15 10:55:49;;;;;;;25.40;17.02;;;9.20;94.50;;;;;;5012691;28;20053;-52
2020/12/15 10:58:15;;;;;;;30.73;17.42;;;9.20;94.50;;;;;;5025725;28;20444;-54
2020/12/15 11:00:41;;;;;;;25.33;16.98;;;9.20;94.60;;;;;;5029324;28;20041;-55
2020/12/15 11:03:07;;;;;;;26.08;18.13;;;9.20;94.50;;;;;;5013441;28;20046;-55
2020/12/15 11:05:33;;;;;;;25.33;18.38;;;9.20;94.60;;;;;;5015068;28;20046;-54
2020/12/15 11:07:58;;;;;;;24.10;17.13;;;9.20;94.60;;;;;;5032439;28;20048;-55
2020/12/15 11:10:24;;;;;;;28.40;18.73;;;9.20;94.70;;;;;;5032512;28;20136;-54
2020/12/15 11:12:50;;;;;;;26.92;17.88;;;9.20;94.70;;;;;;5032545;28;20091;-54
2020/12/15 11:15:17;;;;;;;23.83;17.33;;;9.20;94.70;;;;;;5008600;28;20042;-55
2020/12/15 11:17:44;;;;;;;27.52;18.08;;;9.20;94.80;;;;;;5012011;28;20050;-56
2020/12/15 11:20:31;;;;;;;23.17;16.67;;;9.20;94.80;;;;;;5015570;28;20425;-55
2020/12/15 11:23:00;;;;;;;30.58;17.98;;;9.20;94.80;;;;;;5017902;28;20037;-54
2020/12/15 11:25:26;;;;;;;26.15;19.05;;;9.20;94.80;;;;;;5025922;28;20033;-55
2020/12/15 11:27:52;;;;;;;30.73;19.35;;;9.20;94.80;;;;;;5015918;28;20501;-56
2020/12/15 11:30:19;;;;;;;26.55;18.42;;;9.20;94.80;;;;;;5022930;28;20447;-54
2020/12/15 11:32:47;;;;;;;24.58;18.13;;;9.30;94.90;;;;;;5014134;28;20150;-54
2020/12/15 11:35:13;;;;;;;26.85;18.48;;;9.20;94.80;;;;;;4994902;28;20562;-55
2020/12/15 11:37:42;;;;;;;28.23;18.92;;;9.30;94.90;;;;;;5026103;28;20112;-55
2020/12/15 11:40:10;;;;;;;28.38;19.17;;;9.20;94.90;;;;;;5012950;28;20037;-55
2020/12/15 11:42:36;;;;;;;29.77;19.30;;;9.20;94.90;;;;;;5014698;28;20046;-53
2020/12/15 11:45:03;;;;;;;27.17;19.55;;;9.20;95.00;;;;;;5021765;28;20038;-55
2020/12/15 11:47:28;;;;;;;29.95;19.13;;;9.30;95.00;;;;;;5025532;28;20042;-55
2020/12/15 11:50:14;;;;;;;30.27;19.40;;;9.30;95.00;;;;;;5012440;28;20103;-55
2020/12/15 11:52:40;;;;;;;24.02;17.88;;;9.30;94.90;;;;;;5012278;28;20558;-57
2020/12/15 11:55:06;;;;;;;25.33;18.70;;;9.30;94.90;;;;;;5026275;28;20045;-57
2020/12/15 11:57:53;;;;;;;27.92;18.63;;;9.30;95.00;;;;;;5007353;28;20064;-55
2020/12/15 12:00:20;;;;;;;35.83;19.55;;;9.30;95.00;;;;;;5014149;28;20042;-55
2020/12/15 12:03:05;;;;;;;26.60;18.77;;;9.20;95.00;;;;;;5007917;28;20339;-57
2020/12/15 12:05:51;;;;;;;30.73;20.08;;;9.30;95.00;;;;;;5003079;28;20418;-55
2020/12/15 12:08:17;;;;;;;31.80;21.15;;;9.30;95.00;;;;;;5011104;28;20475;-57
2020/12/15 12:10:42;;;;;;;30.50;21.20;;;9.30;95.00;;;;;;5027374;28;20080;-53
2020/12/15 12:13:08;;;;;;;32.08;20.55;;;9.30;95.00;;;;;;5023788;28;20044;-51
2020/12/15 12:15:34;;;;;;;32.45;22.02;;;9.40;95.00;;;;;;5034942;28;20037;-52
2020/12/15 12:18:00;;;;;;;28.17;20.65;;;9.40;95.00;;;;;;4994129;28;20061;-51
2020/12/15 12:20:46;;;;;;;29.08;20.98;;;9.40;95.00;;;;;;5011875;28;20041;-52
2020/12/15 12:23:32;;;;;;;29.88;20.45;;;9.40;95.00;;;;;;5002561;28;20066;-52
2020/12/15 12:25:58;;;;;;;30.50;20.83;;;9.40;95.00;;;;;;5022516;28;20041;-51
2020/12/15 12:28:24;;;;;;;32.92;21.75;;;9.40;95.00;;;;;;5027104;28;20422;-52
2020/12/15 12:30:50;;;;;;;31.80;21.27;;;9.40;95.00;;;;;;5019517;28;20056;-51
2020/12/15 12:33:16;;;;;;;31.70;21.52;;;9.40;95.00;;;;;;4995046;28;20407;-51
2020/12/15 12:35:41;;;;;;;30.55;20.67;;;9.40;94.90;;;;;;5022918;28;20045;-51
2020/12/15 12:38:07;;;;;;;34.38;22.05;;;9.40;95.00;;;;;;5016578;28;20414;-51
2020/12/15 12:40:53;;;;;;;31.42;21.80;;;9.50;95.00;;;;;;4998203;28;20049;-51
2020/12/15 12:43:18;;;;;;;35.42;22.00;;;9.50;95.00;;;;;;5030376;28;20049;-53
2020/12/15 12:46:04;;;;;;;30.58;21.20;;;9.50;94.90;;;;;;5006560;28;20503;-52
2020/12/15 12:48:30;;;;;;;32.28;21.95;;;9.50;95.00;;;;;;5024429;28;20060;-51
2020/12/15 12:50:55;;;;;;;32.58;22.13;;;9.50;94.90;;;;;;5019631;28;20490;-51
2020/12/15 12:53:21;;;;;;;32.33;22.35;;;9.50;95.00;;;;;;5016156;28;20045;-52
2020/12/15 12:55:48;;;;;;;35.20;23.40;;;9.40;95.00;;;;;;5011490;28;20033;-52
2020/12/15 12:58:34;;;;;;;37.22;22.67;;;9.50;95.00;;;;;;5012803;28;20045;-54
2020/12/15 13:01:01;;;;;;;35.20;23.13;;;9.50;95.00;;;;;;5026461;28;20076;-51
2020/12/15 13:03:47;;;;;;;38.20;22.23;;;9.50;95.00;;;;;;4994316;28;20054;-51
2020/12/15 13:06:12;;;;;;;30.98;21.80;;;9.50;95.10;;;;;;5013141;28;20065;-51